Aguadilla, Puerto Rico
Current Conditions -  °F | °C
As of 4:50 PM on Saturday 25 Oct 2014 (Local Time) from TJBQ Reporting Station
Scattered Clouds Scattered Clouds  
Wind Chill: 84°   Ceiling: Unl
Heat Index: 91°   Visibility: 10mi
Dew Point: 73°   Wind: 5mph
Humidity: 70%   Direction: 60°ENE
Pressure: 29.85"   Gusts: NA
Location:  18.49°N, 67.13°W
Report Text: TJBQ 252050Z 06004KT 10SM SCT044 29/23 A2985 RMK RWY08 - ATIS Y
Loading
Personal Weather Stations






























Interactive Weather Map
Tropical Storm Tracking
New forecast layout! Learn more

10-Day Weather Forecast

Advertisements
Track Severe Weather on mobile